createdAt,value
2022-09-30T00:00:16.480Z,1005.44
2022-09-30T00:01:20.707Z,1005.44
2022-09-30T00:02:24.929Z,1005.45
2022-09-30T00:03:29.266Z,1005.42
2022-09-30T00:04:33.568Z,1005.43
2022-09-30T00:05:37.967Z,1005.42
2022-09-30T00:06:42.241Z,1005.43
2022-09-30T00:07:46.540Z,1005.45
2022-09-30T00:08:50.818Z,1005.45
2022-09-30T00:09:55.093Z,1005.43
2022-09-30T00:10:59.368Z,1005.43
2022-09-30T00:12:03.659Z,1005.42
2022-09-30T00:13:07.877Z,1005.41
2022-09-30T00:14:12.209Z,1005.41
2022-09-30T00:15:16.492Z,1005.43
2022-09-30T00:16:20.869Z,1005.42
2022-09-30T00:17:25.110Z,1005.44
2022-09-30T00:18:29.516Z,1005.45
2022-09-30T00:19:33.799Z,1005.47
2022-09-30T00:20:38.086Z,1005.49
2022-09-30T00:21:42.489Z,1005.52
2022-09-30T00:22:46.748Z,1005.52
2022-09-30T00:23:51.090Z,1005.50
2022-09-30T00:24:55.252Z,1005.50
2022-09-30T00:25:59.629Z,1005.53
2022-09-30T00:27:03.939Z,1005.52
2022-09-30T00:28:08.183Z,1005.52
2022-09-30T00:29:12.481Z,1005.54
2022-09-30T00:30:16.727Z,1005.55
2022-09-30T00:31:21.131Z,1005.55
2022-09-30T00:32:25.354Z,1005.56
2022-09-30T00:33:29.663Z,1005.56
2022-09-30T00:34:33.951Z,1005.56
2022-09-30T00:35:38.154Z,1005.56
2022-09-30T00:36:42.533Z,1005.57
2022-09-30T00:37:46.830Z,1005.57
2022-09-30T00:38:51.136Z,1005.57
2022-09-30T00:39:55.451Z,1005.57
2022-09-30T00:40:59.727Z,1005.58
2022-09-30T00:42:03.992Z,1005.57
2022-09-30T00:43:08.296Z,1005.61
2022-09-30T00:44:12.605Z,1005.61
2022-09-30T00:45:16.985Z,1005.62
2022-09-30T00:46:21.216Z,1005.61
2022-09-30T00:47:25.383Z,1005.63
2022-09-30T00:48:29.761Z,1005.62
2022-09-30T00:49:34.068Z,1005.62
2022-09-30T00:50:38.263Z,1005.62
2022-09-30T00:51:42.545Z,1005.64
2022-09-30T00:52:46.938Z,1005.62
2022-09-30T00:53:51.173Z,1005.60
2022-09-30T00:54:55.469Z,1005.63
2022-09-30T00:55:59.780Z,1005.61
2022-09-30T00:57:04.088Z,1005.60
2022-09-30T00:58:08.353Z,1005.60
2022-09-30T00:59:12.629Z,1005.60
2022-09-30T01:00:16.945Z,1005.60
2022-09-30T01:01:21.223Z,1005.57
2022-09-30T01:02:25.683Z,1005.57
2022-09-30T01:03:29.843Z,1005.59
2022-09-30T01:04:34.144Z,1005.59
2022-09-30T01:05:38.453Z,1005.58
2022-09-30T01:06:42.754Z,1005.58
2022-09-30T01:07:47.092Z,1005.58
2022-09-30T01:08:51.244Z,1005.58
2022-09-30T01:09:55.475Z,1005.57
2022-09-30T01:11:02.366Z,1005.58
2022-09-30T01:12:03.990Z,1005.61
2022-09-30T01:13:08.193Z,1005.60
2022-09-30T01:14:12.550Z,1005.61
2022-09-30T01:15:16.849Z,1005.63
2022-09-30T01:16:21.207Z,1005.63
2022-09-30T01:17:25.489Z,1005.63
2022-09-30T01:18:29.794Z,1005.62
2022-09-30T01:19:33.983Z,1005.61
2022-09-30T01:20:38.308Z,1005.62
2022-09-30T01:21:42.522Z,1005.60
2022-09-30T01:22:46.896Z,1005.60
2022-09-30T01:23:51.214Z,1005.60
2022-09-30T01:24:55.509Z,1005.59
2022-09-30T01:25:59.819Z,1005.59
2022-09-30T01:27:04.138Z,1005.57
2022-09-30T01:28:08.572Z,1005.58
2022-09-30T01:29:12.740Z,1005.58
2022-09-30T01:30:17.015Z,1005.57
2022-09-30T01:31:21.355Z,1005.58
2022-09-30T01:32:25.576Z,1005.58
2022-09-30T01:33:29.888Z,1005.59
2022-09-30T01:34:34.328Z,1005.59
2022-09-30T01:35:38.454Z,1005.57
2022-09-30T01:36:42.718Z,1005.58
2022-09-30T01:37:47.129Z,1005.56
2022-09-30T01:38:51.395Z,1005.59
2022-09-30T01:39:55.665Z,1005.58
2022-09-30T01:40:59.960Z,1005.58
2022-09-30T01:42:04.244Z,1005.59
2022-09-30T01:43:08.673Z,1005.57
2022-09-30T01:44:12.939Z,1005.56
2022-09-30T01:45:17.245Z,1005.54
2022-09-30T01:46:21.537Z,1005.54
2022-09-30T01:47:25.925Z,1005.55
2022-09-30T01:48:30.081Z,1005.55
2022-09-30T01:49:34.450Z,1005.55
2022-09-30T01:50:38.731Z,1005.56
2022-09-30T01:52:52.313Z,1005.57
2022-09-30T01:53:56.465Z,1005.59
2022-09-30T01:55:00.772Z,1005.59
2022-09-30T01:56:05.085Z,1005.59
2022-09-30T01:57:09.391Z,1005.57
2022-09-30T01:58:13.691Z,1005.56
2022-09-30T01:59:18.098Z,1005.57
2022-09-30T02:00:22.302Z,1005.57
2022-09-30T02:01:26.723Z,1005.60
2022-09-30T02:02:31.010Z,1005.57
2022-09-30T02:03:35.241Z,1005.58
2022-09-30T02:04:39.584Z,1005.58
2022-09-30T02:05:43.907Z,1005.59
2022-09-30T02:06:48.202Z,1005.58
2022-09-30T02:07:52.469Z,1005.57
2022-09-30T02:08:56.831Z,1005.59
2022-09-30T02:10:01.036Z,1005.59
2022-09-30T02:11:05.302Z,1005.60
2022-09-30T02:12:09.619Z,1005.60
2022-09-30T02:13:13.942Z,1005.61
2022-09-30T02:14:18.317Z,1005.60
2022-09-30T02:15:22.469Z,1005.60
2022-09-30T02:16:26.972Z,1005.61
2022-09-30T02:17:31.012Z,1005.62
2022-09-30T02:18:35.347Z,1005.63
2022-09-30T02:19:39.633Z,1005.64
2022-09-30T02:20:44.006Z,1005.64
2022-09-30T02:21:48.330Z,1005.65
2022-09-30T02:22:52.677Z,1005.65
2022-09-30T02:23:56.810Z,1005.66
2022-09-30T02:25:01.122Z,1005.68
2022-09-30T02:26:05.414Z,1005.71
2022-09-30T02:27:09.693Z,1005.71
2022-09-30T02:28:13.959Z,1005.70
2022-09-30T02:29:18.081Z,1005.71
2022-09-30T02:30:22.580Z,1005.71
2022-09-30T02:31:26.945Z,1005.73
2022-09-30T02:32:31.146Z,1005.73
2022-09-30T02:33:35.464Z,1005.76
2022-09-30T02:34:39.746Z,1005.75
2022-09-30T02:35:44.036Z,1005.75
2022-09-30T02:36:48.324Z,1005.71
2022-09-30T02:37:52.623Z,1005.70
2022-09-30T02:38:57.004Z,1005.72
2022-09-30T02:40:01.293Z,1005.72
2022-09-30T02:41:05.515Z,1005.74
2022-09-30T02:42:09.879Z,1005.75
2022-09-30T02:43:14.179Z,1005.73
2022-09-30T02:44:18.457Z,1005.75
2022-09-30T02:45:22.874Z,1005.75
2022-09-30T02:46:27.216Z,1005.73
2022-09-30T02:47:31.435Z,1005.73
2022-09-30T02:48:35.697Z,1005.75
2022-09-30T02:49:39.926Z,1005.76
2022-09-30T02:50:44.348Z,1005.77
2022-09-30T02:51:48.543Z,1005.79
2022-09-30T02:52:52.885Z,1005.81
2022-09-30T02:53:57.195Z,1005.82
2022-09-30T02:55:01.485Z,1005.83
2022-09-30T02:56:05.806Z,1005.84
2022-09-30T02:57:10.120Z,1005.84
2022-09-30T02:58:17.340Z,1005.85
2022-09-30T02:59:20.729Z,1005.85
2022-09-30T03:00:25.016Z,1005.86
2022-09-30T03:01:29.407Z,1005.86
2022-09-30T03:02:33.653Z,1005.88
2022-09-30T03:03:38.001Z,1005.87
2022-09-30T03:04:42.178Z,1005.86
2022-09-30T03:05:46.493Z,1005.88
2022-09-30T03:06:50.844Z,1005.89
2022-09-30T03:07:55.158Z,1005.89
2022-09-30T03:08:59.638Z,1005.87
2022-09-30T03:10:03.806Z,1005.89
2022-09-30T03:11:08.146Z,1005.90
2022-09-30T03:12:12.400Z,1005.88
2022-09-30T03:13:16.698Z,1005.89
2022-09-30T03:14:20.941Z,1005.87
2022-09-30T03:15:25.318Z,1005.88
2022-09-30T03:16:29.754Z,1005.88
2022-09-30T03:17:33.943Z,1005.90
2022-09-30T03:18:38.245Z,1005.91
2022-09-30T03:19:42.654Z,1005.91
2022-09-30T03:20:46.878Z,1005.91
2022-09-30T03:21:51.185Z,1005.95
2022-09-30T03:22:55.609Z,1005.95
2022-09-30T03:23:59.854Z,1005.94
2022-09-30T03:25:04.165Z,1005.95
2022-09-30T03:26:08.445Z,1005.96
2022-09-30T03:27:12.638Z,1005.95
2022-09-30T03:28:17.110Z,1005.96
2022-09-30T03:29:21.351Z,1005.96
2022-09-30T03:30:25.709Z,1005.99
2022-09-30T03:31:29.985Z,1006.00
2022-09-30T03:32:34.207Z,1006.03
2022-09-30T03:33:38.597Z,1006.07
2022-09-30T03:34:42.862Z,1006.09
2022-09-30T03:35:47.168Z,1006.11
2022-09-30T03:36:51.436Z,1006.13
2022-09-30T03:37:55.652Z,1006.16
2022-09-30T03:39:00.019Z,1006.16
2022-09-30T03:40:04.227Z,1006.17
2022-09-30T03:41:08.671Z,1006.17
2022-09-30T03:42:13.003Z,1006.22
2022-09-30T03:43:17.370Z,1006.26
2022-09-30T03:44:21.520Z,1006.29
2022-09-30T03:45:25.954Z,1006.31
2022-09-30T03:46:30.306Z,1006.32
2022-09-30T03:47:34.506Z,1006.34
2022-09-30T03:48:38.881Z,1006.35
2022-09-30T03:49:43.183Z,1006.36
2022-09-30T03:50:47.469Z,1006.36
2022-09-30T03:51:51.887Z,1006.34
2022-09-30T03:52:56.001Z,1006.34
2022-09-30T03:54:03.413Z,1006.35
2022-09-30T03:55:06.686Z,1006.36
2022-09-30T03:56:11.128Z,1006.34
2022-09-30T03:57:15.382Z,1006.35
2022-09-30T03:58:19.783Z,1006.36
2022-09-30T03:59:24.117Z,1006.38
2022-09-30T04:00:28.330Z,1006.37
2022-09-30T04:01:32.686Z,1006.37
2022-09-30T04:02:36.897Z,1006.36
2022-09-30T04:03:41.273Z,1006.35
2022-09-30T04:04:45.616Z,1006.37
2022-09-30T04:05:49.970Z,1006.35
2022-09-30T04:06:54.197Z,1006.36
2022-09-30T04:07:58.623Z,1006.37
2022-09-30T04:09:03.036Z,1006.38
2022-09-30T04:10:07.131Z,1006.39
2022-09-30T04:11:11.591Z,1006.39
2022-09-30T04:12:15.749Z,1006.41
2022-09-30T04:13:20.018Z,1006.42
2022-09-30T04:14:24.262Z,1006.41
2022-09-30T04:15:28.602Z,1006.41
2022-09-30T04:16:32.986Z,1006.41
2022-09-30T04:17:37.202Z,1006.41
2022-09-30T04:18:41.502Z,1006.42
2022-09-30T04:19:45.771Z,1006.43
2022-09-30T04:20:50.111Z,1006.44
2022-09-30T04:21:54.475Z,1006.44
2022-09-30T04:22:58.778Z,1006.45
2022-09-30T04:24:03.042Z,1006.46
2022-09-30T04:25:07.441Z,1006.48
2022-09-30T04:26:11.857Z,1006.49
2022-09-30T04:27:16.103Z,1006.50
2022-09-30T04:28:20.492Z,1006.50
2022-09-30T04:29:24.828Z,1006.50
2022-09-30T04:30:33.293Z,1006.50
2022-09-30T04:31:33.413Z,1006.51
2022-09-30T04:32:37.699Z,1006.52
2022-09-30T04:33:41.880Z,1006.53
2022-09-30T04:34:46.316Z,1006.54
2022-09-30T04:35:50.671Z,1006.56
2022-09-30T04:36:55.024Z,1006.57
2022-09-30T04:37:59.263Z,1006.58
2022-09-30T04:39:03.604Z,1006.61
2022-09-30T04:40:07.957Z,1006.64
2022-09-30T04:41:12.236Z,1006.66
2022-09-30T04:42:16.498Z,1006.70
2022-09-30T04:43:20.806Z,1006.72
2022-09-30T04:44:25.189Z,1006.75
2022-09-30T04:45:29.513Z,1006.75
2022-09-30T04:46:33.651Z,1006.78
2022-09-30T04:47:38.089Z,1006.79
2022-09-30T04:48:42.452Z,1006.81
2022-09-30T04:49:46.710Z,1006.84
2022-09-30T04:50:50.987Z,1006.82
2022-09-30T04:51:55.191Z,1006.84
2022-09-30T04:52:59.588Z,1006.84
2022-09-30T04:54:03.819Z,1006.85
2022-09-30T04:55:08.024Z,1006.85
2022-09-30T04:56:12.288Z,1006.87
2022-09-30T04:57:16.564Z,1006.86
2022-09-30T04:58:20.861Z,1006.86
2022-09-30T04:59:25.147Z,1006.89
2022-09-30T05:00:29.514Z,1006.89
2022-09-30T05:01:33.773Z,1006.91
2022-09-30T05:02:38.125Z,1006.92
2022-09-30T05:03:42.472Z,1006.95
2022-09-30T05:04:46.744Z,1006.96
2022-09-30T05:05:51.105Z,1006.97
2022-09-30T05:06:55.342Z,1006.97
2022-09-30T05:07:59.579Z,1007.00
2022-09-30T05:09:03.948Z,1007.00
2022-09-30T05:10:08.112Z,1007.01
2022-09-30T05:11:12.341Z,1007.04
2022-09-30T05:12:16.622Z,1007.05
2022-09-30T05:13:20.780Z,1007.06
2022-09-30T05:14:25.173Z,1007.09
2022-09-30T05:15:29.387Z,1007.09
2022-09-30T05:16:33.780Z,1007.09
2022-09-30T05:17:37.893Z,1007.10
2022-09-30T05:18:42.343Z,1007.08
2022-09-30T05:19:46.675Z,1007.09
2022-09-30T05:20:50.858Z,1007.10
2022-09-30T05:21:55.079Z,1007.10
2022-09-30T05:22:59.436Z,1007.09
2022-09-30T05:24:03.837Z,1007.09
2022-09-30T05:25:08.021Z,1007.06
2022-09-30T05:26:13.073Z,1007.07
2022-09-30T05:27:16.714Z,1007.07
2022-09-30T05:28:20.949Z,1007.07
2022-09-30T05:29:25.363Z,1007.05
2022-09-30T05:30:29.713Z,1007.05
2022-09-30T05:31:34.176Z,1007.05
2022-09-30T05:32:38.370Z,1007.06
2022-09-30T05:33:45.731Z,1007.06
2022-09-30T05:34:49.090Z,1007.07
2022-09-30T05:35:53.483Z,1007.07
2022-09-30T05:36:57.824Z,1007.10
2022-09-30T05:38:02.139Z,1007.12
2022-09-30T05:39:06.412Z,1007.11
2022-09-30T05:40:10.705Z,1007.12
2022-09-30T05:41:14.940Z,1007.13
2022-09-30T05:42:19.363Z,1007.14
2022-09-30T05:43:23.595Z,1007.13
2022-09-30T05:44:27.850Z,1007.14
2022-09-30T05:45:32.055Z,1007.17
2022-09-30T05:46:36.507Z,1007.18
2022-09-30T05:47:40.689Z,1007.20
2022-09-30T05:48:45.097Z,1007.22
2022-09-30T05:49:53.005Z,1007.23
2022-09-30T05:50:53.806Z,1007.27
2022-09-30T05:51:57.998Z,1007.28
2022-09-30T05:53:02.312Z,1007.33
2022-09-30T05:54:06.611Z,1007.34
2022-09-30T05:55:10.921Z,1007.34
2022-09-30T05:56:15.186Z,1007.35
2022-09-30T05:57:19.461Z,1007.38
2022-09-30T05:58:23.767Z,1007.38
2022-09-30T05:59:27.952Z,1007.39
2022-09-30T06:00:32.307Z,1007.41
2022-09-30T06:01:36.616Z,1007.42
2022-09-30T06:02:40.896Z,1007.44
2022-09-30T06:03:45.038Z,1007.44
2022-09-30T06:04:49.391Z,1007.47
2022-09-30T06:05:53.602Z,1007.47
2022-09-30T06:06:57.858Z,1007.49
2022-09-30T06:08:02.187Z,1007.48
2022-09-30T06:09:06.576Z,1007.48
2022-09-30T06:10:10.662Z,1007.47
2022-09-30T06:11:14.999Z,1007.48
2022-09-30T06:12:19.265Z,1007.51
2022-09-30T06:13:23.629Z,1007.49
2022-09-30T06:14:27.825Z,1007.49
2022-09-30T06:15:32.125Z,1007.50
2022-09-30T06:16:36.525Z,1007.51
2022-09-30T06:17:40.707Z,1007.50
2022-09-30T06:18:45.044Z,1007.53
2022-09-30T06:19:49.226Z,1007.52
2022-09-30T06:20:53.715Z,1007.53
2022-09-30T06:21:57.959Z,1007.52
2022-09-30T06:23:02.179Z,1007.52
2022-09-30T06:24:06.502Z,1007.54
2022-09-30T06:25:10.875Z,1007.53
2022-09-30T06:26:15.214Z,1007.57
2022-09-30T06:27:19.431Z,1007.57
2022-09-30T06:28:23.713Z,1007.61
2022-09-30T06:29:28.029Z,1007.61
2022-09-30T06:30:35.231Z,1007.66
2022-09-30T06:31:36.710Z,1007.69
2022-09-30T06:32:40.896Z,1007.69
2022-09-30T06:33:45.198Z,1007.70
2022-09-30T06:34:49.506Z,1007.70
2022-09-30T06:35:53.788Z,1007.69
2022-09-30T06:36:58.099Z,1007.68
2022-09-30T06:38:02.316Z,1007.67
2022-09-30T06:39:10.254Z,1007.64
2022-09-30T06:40:10.870Z,1007.62
2022-09-30T06:41:15.209Z,1007.64
2022-09-30T06:42:19.520Z,1007.66
2022-09-30T06:43:23.629Z,1007.68
2022-09-30T06:44:28.111Z,1007.69
2022-09-30T06:45:33.205Z,1007.73
2022-09-30T06:46:45.963Z,1007.74
2022-09-30T06:47:50.931Z,1007.79
2022-09-30T06:48:45.115Z,1007.82
2022-09-30T06:49:50.316Z,1007.83
2022-09-30T06:51:01.250Z,1007.82
2022-09-30T06:51:58.129Z,1007.81
2022-09-30T06:53:02.527Z,1007.81
2022-09-30T06:54:06.806Z,1007.84
2022-09-30T06:55:11.220Z,1007.89
2022-09-30T06:56:15.456Z,1007.86
2022-09-30T06:57:19.671Z,1007.88
2022-09-30T06:58:24.022Z,1007.87
2022-09-30T06:59:28.419Z,1007.85
2022-09-30T07:00:32.737Z,1007.86
2022-09-30T07:01:36.908Z,1007.89
2022-09-30T07:02:41.310Z,1007.86
2022-09-30T07:03:45.526Z,1007.87
2022-09-30T07:04:49.842Z,1007.86
2022-09-30T07:05:54.128Z,1007.84
2022-09-30T07:06:58.329Z,1007.85
2022-09-30T07:08:02.750Z,1007.86
2022-09-30T07:09:06.956Z,1007.86
2022-09-30T07:10:11.408Z,1007.90
2022-09-30T07:11:15.710Z,1007.90
2022-09-30T07:12:20.084Z,1007.89
2022-09-30T07:13:27.435Z,1007.89
2022-09-30T07:14:30.823Z,1007.91
2022-09-30T07:15:35.166Z,1007.90
2022-09-30T07:16:39.469Z,1007.91
2022-09-30T07:17:43.695Z,1007.91
2022-09-30T07:18:47.991Z,1007.90
2022-09-30T07:19:52.208Z,1007.91
2022-09-30T07:20:56.530Z,1007.90
2022-09-30T07:22:00.863Z,1007.88
2022-09-30T07:23:05.174Z,1007.89
2022-09-30T07:24:09.403Z,1007.89
2022-09-30T07:25:13.770Z,1007.88
2022-09-30T07:26:32.038Z,1007.88
2022-09-30T07:27:35.496Z,1007.88
2022-09-30T07:28:39.657Z,1007.91
2022-09-30T07:30:04.350Z,1007.93
2022-09-30T07:30:48.250Z,1007.95
2022-09-30T07:31:52.559Z,1007.96
2022-09-30T07:32:56.883Z,1007.99
2022-09-30T07:34:01.176Z,1008.02
2022-09-30T07:35:05.564Z,1008.02
2022-09-30T07:36:09.958Z,1008.01
2022-09-30T07:37:14.334Z,1008.02
2022-09-30T07:38:18.594Z,1008.02
2022-09-30T07:39:23.011Z,1008.01
2022-09-30T07:40:27.123Z,1008.03
2022-09-30T07:41:31.587Z,1008.05
2022-09-30T07:42:35.767Z,1008.06
2022-09-30T07:43:40.138Z,1008.04
2022-09-30T07:44:44.415Z,1008.06
2022-09-30T07:45:48.816Z,1008.05
2022-09-30T07:46:53.127Z,1008.04
2022-09-30T07:47:57.373Z,1008.05
2022-09-30T07:49:01.704Z,1008.05
2022-09-30T07:50:06.050Z,1008.07
2022-09-30T07:51:10.341Z,1008.05
2022-09-30T07:52:14.603Z,1008.06
2022-09-30T07:53:18.874Z,1008.07
2022-09-30T07:54:23.226Z,1008.08
2022-09-30T07:55:27.542Z,1008.09
2022-09-30T07:56:51.315Z,1008.11
2022-09-30T07:57:36.227Z,1008.10
2022-09-30T07:58:40.518Z,1008.11
2022-09-30T07:59:44.892Z,1008.11
2022-09-30T08:00:49.302Z,1008.09
2022-09-30T08:01:53.498Z,1008.07
2022-09-30T08:02:57.907Z,1008.07
2022-09-30T08:04:02.119Z,1008.08
2022-09-30T08:05:06.465Z,1008.07
2022-09-30T08:06:10.788Z,1008.07
2022-09-30T08:07:14.970Z,1008.08
2022-09-30T08:08:19.318Z,1008.09
2022-09-30T08:09:23.955Z,1008.12
2022-09-30T08:10:28.010Z,1008.13
2022-09-30T08:11:32.215Z,1008.11
2022-09-30T08:12:36.479Z,1008.09
2022-09-30T08:13:40.765Z,1008.08
2022-09-30T08:14:45.026Z,1008.09
2022-09-30T08:15:49.465Z,1008.13
2022-09-30T08:16:53.917Z,1008.16
2022-09-30T08:17:57.956Z,1008.18
2022-09-30T08:19:02.256Z,1008.16
2022-09-30T08:20:12.337Z,1008.17
2022-09-30T08:21:11.075Z,1008.16
2022-09-30T08:22:15.500Z,1008.15
2022-09-30T08:23:19.695Z,1008.15
2022-09-30T08:24:24.194Z,1008.12
2022-09-30T08:25:28.240Z,1008.14
2022-09-30T08:26:32.709Z,1008.14
2022-09-30T08:27:37.063Z,1008.14
2022-09-30T08:28:41.382Z,1008.13
2022-09-30T08:30:49.977Z,1008.12
2022-09-30T08:31:54.314Z,1008.11
2022-09-30T08:32:58.592Z,1008.10
2022-09-30T08:34:02.804Z,1008.10
2022-09-30T08:35:07.253Z,1008.10
2022-09-30T08:36:11.512Z,1008.09
2022-09-30T08:37:15.738Z,1008.11
2022-09-30T08:38:20.259Z,1008.10
2022-09-30T08:39:24.302Z,1008.10
2022-09-30T08:40:28.756Z,1008.10
2022-09-30T08:41:33.026Z,1008.10
2022-09-30T08:42:39.568Z,1008.12
2022-09-30T08:43:41.730Z,1008.12
2022-09-30T08:44:46.107Z,1008.13
2022-09-30T08:45:50.575Z,1008.11
2022-09-30T08:46:58.214Z,1008.13
2022-09-30T08:47:58.970Z,1008.14
2022-09-30T08:49:03.674Z,1008.16
2022-09-30T08:50:07.573Z,1008.19
2022-09-30T08:51:11.830Z,1008.18
2022-09-30T08:52:24.642Z,1008.19
2022-09-30T08:53:20.454Z,1008.18
2022-09-30T08:54:24.718Z,1008.19
2022-09-30T08:55:29.022Z,1008.19
2022-09-30T08:56:33.463Z,1008.17
2022-09-30T08:57:37.825Z,1008.16
2022-09-30T08:58:45.006Z,1008.16
2022-09-30T08:59:48.316Z,1008.15
2022-09-30T09:00:52.589Z,1008.18
2022-09-30T09:01:56.967Z,1008.20
2022-09-30T09:03:01.159Z,1008.21
2022-09-30T09:04:05.532Z,1008.19
2022-09-30T09:05:09.843Z,1008.20
2022-09-30T09:06:14.026Z,1008.19
2022-09-30T09:07:18.305Z,1008.18
2022-09-30T09:08:22.563Z,1008.19
2022-09-30T09:09:26.816Z,1008.18
2022-09-30T09:10:31.136Z,1008.20
2022-09-30T09:11:37.781Z,1008.19
2022-09-30T09:12:39.635Z,1008.15
2022-09-30T09:13:43.978Z,1008.14
2022-09-30T09:14:48.169Z,1008.14
2022-09-30T09:15:52.424Z,1008.11
2022-09-30T09:16:56.736Z,1008.13
2022-09-30T09:18:21.931Z,1008.11
2022-09-30T09:19:05.142Z,1008.12
2022-09-30T09:20:09.464Z,1008.06
2022-09-30T09:21:13.822Z,1008.06
2022-09-30T09:22:20.179Z,1008.08
2022-09-30T09:23:22.464Z,1008.04
2022-09-30T09:24:26.726Z,1008.04
2022-09-30T09:25:30.973Z,1008.03
2022-09-30T09:26:35.390Z,1008.01
2022-09-30T09:27:39.561Z,1008.03
2022-09-30T09:28:43.828Z,1008.04
2022-09-30T09:29:48.180Z,1008.05
2022-09-30T09:30:52.411Z,1008.07
2022-09-30T09:31:56.838Z,1008.09
2022-09-30T09:33:01.068Z,1008.09
2022-09-30T09:34:05.407Z,1008.09
2022-09-30T09:35:09.726Z,1008.12
2022-09-30T09:36:14.063Z,1008.07
2022-09-30T09:37:18.320Z,1008.09
2022-09-30T09:38:22.653Z,1008.04
2022-09-30T09:39:26.972Z,1008.05
2022-09-30T09:40:31.285Z,1008.06
2022-09-30T09:41:35.477Z,1008.07
2022-09-30T09:43:44.103Z,1008.13
2022-09-30T09:44:48.375Z,1008.14
2022-09-30T09:45:52.767Z,1008.14
2022-09-30T09:46:56.966Z,1008.17
2022-09-30T09:48:01.311Z,1008.17
2022-09-30T09:49:05.641Z,1008.23
2022-09-30T09:50:09.947Z,1008.23
2022-09-30T09:51:14.149Z,1008.22
2022-09-30T09:52:18.509Z,1008.23
2022-09-30T09:53:22.774Z,1008.25
2022-09-30T09:54:27.038Z,1008.26
2022-09-30T09:55:31.283Z,1008.24
2022-09-30T09:56:35.554Z,1008.26
2022-09-30T09:57:39.776Z,1008.24
2022-09-30T09:58:44.220Z,1008.25
2022-09-30T09:59:48.395Z,1008.28
2022-09-30T10:00:52.712Z,1008.25
2022-09-30T10:01:56.940Z,1008.25
2022-09-30T10:03:01.218Z,1008.25
2022-09-30T10:04:05.576Z,1008.25
2022-09-30T10:05:09.896Z,1008.24
2022-09-30T10:06:14.138Z,1008.25
2022-09-30T10:07:18.398Z,1008.25
2022-09-30T10:08:22.670Z,1008.27
2022-09-30T10:09:26.968Z,1008.29
2022-09-30T10:10:31.328Z,1008.28
2022-09-30T10:11:35.688Z,1008.28
2022-09-30T10:12:39.979Z,1008.28
2022-09-30T10:13:44.285Z,1008.29
2022-09-30T10:14:48.644Z,1008.33
2022-09-30T10:15:52.897Z,1008.28
2022-09-30T10:16:57.137Z,1008.31
2022-09-30T10:18:01.438Z,1008.30
2022-09-30T10:19:09.530Z,1008.30
2022-09-30T10:20:10.132Z,1008.30
2022-09-30T10:21:14.456Z,1008.32
2022-09-30T10:22:18.711Z,1008.29
2022-09-30T10:23:23.137Z,1008.30
2022-09-30T10:24:27.328Z,1008.27
2022-09-30T10:25:31.811Z,1008.28
2022-09-30T10:26:36.033Z,1008.26
2022-09-30T10:27:40.394Z,1008.30
2022-09-30T10:28:44.674Z,1008.30
2022-09-30T10:29:49.035Z,1008.30
2022-09-30T10:30:53.428Z,1008.26
2022-09-30T10:31:59.888Z,1008.28
2022-09-30T10:33:01.904Z,1008.28
2022-09-30T10:34:06.199Z,1008.29
2022-09-30T10:35:10.502Z,1008.24
2022-09-30T10:36:14.955Z,1008.23
2022-09-30T10:37:19.170Z,1008.21
2022-09-30T10:38:23.471Z,1008.21
2022-09-30T10:39:27.793Z,1008.21
2022-09-30T10:40:32.084Z,1008.21
2022-09-30T10:41:36.422Z,1008.20
2022-09-30T10:42:40.714Z,1008.18
2022-09-30T10:43:45.039Z,1008.20
2022-09-30T10:44:49.450Z,1008.19
2022-09-30T10:46:20.774Z,1008.19
2022-09-30T10:46:58.047Z,1008.19
2022-09-30T10:48:02.349Z,1008.18
2022-09-30T10:49:06.606Z,1008.17
2022-09-30T10:50:10.923Z,1008.18
2022-09-30T10:51:15.248Z,1008.15
2022-09-30T10:52:19.625Z,1008.13
2022-09-30T10:53:23.976Z,1008.12
2022-09-30T10:54:28.314Z,1008.17
2022-09-30T10:55:32.648Z,1008.14
2022-09-30T10:56:37.018Z,1008.15
2022-09-30T10:57:41.256Z,1008.12
2022-09-30T10:58:45.686Z,1008.10
2022-09-30T10:59:49.871Z,1008.12
2022-09-30T11:00:54.286Z,1008.10
2022-09-30T11:01:59.961Z,1008.10
2022-09-30T11:03:02.952Z,1008.07
2022-09-30T11:04:07.154Z,1008.08
2022-09-30T11:05:11.469Z,1008.05
2022-09-30T11:06:15.745Z,1008.06
2022-09-30T11:07:20.096Z,1008.08
2022-09-30T11:08:24.394Z,1008.07
2022-09-30T11:09:28.827Z,1008.09
2022-09-30T11:10:33.230Z,1008.08
2022-09-30T11:11:37.378Z,1008.14
2022-09-30T11:12:41.783Z,1008.14
2022-09-30T11:13:46.145Z,1008.13
2022-09-30T11:14:50.591Z,1008.11
2022-09-30T11:15:54.925Z,1008.15
2022-09-30T11:16:59.200Z,1008.14
2022-09-30T11:18:03.467Z,1008.15
2022-09-30T11:19:07.809Z,1008.09
2022-09-30T11:20:12.035Z,1008.11
2022-09-30T11:21:16.347Z,1008.10
2022-09-30T11:22:20.610Z,1008.08
2022-09-30T11:23:24.933Z,1008.07
2022-09-30T11:24:29.309Z,1008.06
2022-09-30T11:25:33.693Z,1008.04
2022-09-30T11:26:38.010Z,1008.03
2022-09-30T11:27:42.368Z,1008.05
2022-09-30T11:28:46.701Z,1008.06
2022-09-30T11:29:51.061Z,1008.03
2022-09-30T11:30:55.321Z,1008.00
2022-09-30T11:31:59.679Z,1007.98
2022-09-30T11:33:04.021Z,1007.99
2022-09-30T11:34:08.307Z,1007.98
2022-09-30T11:35:12.645Z,1007.94
2022-09-30T11:36:17.012Z,1007.93
2022-09-30T11:37:21.300Z,1007.98
2022-09-30T11:38:25.720Z,1007.92
2022-09-30T11:39:30.009Z,1007.91
2022-09-30T11:40:34.312Z,1007.88
2022-09-30T11:41:38.632Z,1007.87
2022-09-30T11:42:42.938Z,1007.85
2022-09-30T11:43:47.373Z,1007.86
2022-09-30T11:44:51.623Z,1007.85
2022-09-30T11:45:56.161Z,1007.87
2022-09-30T11:47:00.369Z,1007.85
2022-09-30T11:48:04.636Z,1007.84
2022-09-30T11:49:08.946Z,1007.88
2022-09-30T11:50:13.377Z,1007.88
2022-09-30T11:51:17.822Z,1007.89
2022-09-30T11:52:21.996Z,1007.86
2022-09-30T11:53:26.330Z,1007.88
2022-09-30T11:54:30.620Z,1007.88
2022-09-30T11:55:35.014Z,1007.88
2022-09-30T11:56:39.332Z,1007.89
2022-09-30T11:57:43.615Z,1007.86
2022-09-30T11:58:47.982Z,1007.83
2022-09-30T11:59:52.366Z,1007.83
2022-09-30T12:00:56.745Z,1007.84
2022-09-30T12:02:01.247Z,1007.84
2022-09-30T12:03:09.909Z,1007.88
2022-09-30T12:04:09.869Z,1007.88
2022-09-30T12:05:14.264Z,1007.92
2022-09-30T12:06:18.521Z,1007.88
2022-09-30T12:07:23.016Z,1007.88
2022-09-30T12:08:27.292Z,1007.88
2022-09-30T12:09:31.586Z,1007.89
2022-09-30T12:10:35.882Z,1007.88
2022-09-30T12:11:40.224Z,1007.84
2022-09-30T12:12:44.521Z,1007.83
2022-09-30T12:13:48.827Z,1007.82
2022-09-30T12:14:53.173Z,1007.84
2022-09-30T12:15:57.469Z,1007.85
2022-09-30T12:17:01.956Z,1007.86
2022-09-30T12:18:06.159Z,1007.82
2022-09-30T12:19:10.447Z,1007.85
2022-09-30T12:20:14.794Z,1007.83
2022-09-30T12:21:19.090Z,1007.82
2022-09-30T12:22:23.402Z,1007.82
2022-09-30T12:23:27.800Z,1007.83
2022-09-30T12:24:32.066Z,1007.86
2022-09-30T12:25:37.837Z,1007.93
2022-09-30T12:26:40.720Z,1007.98
2022-09-30T12:27:45.021Z,1008.01
2022-09-30T12:28:49.296Z,1007.97
2022-09-30T12:29:53.680Z,1007.99
2022-09-30T12:30:58.010Z,1008.00
2022-09-30T12:32:02.416Z,1008.00
2022-09-30T12:33:06.638Z,1007.98
2022-09-30T12:34:10.892Z,1007.94
2022-09-30T12:35:15.344Z,1008.00
2022-09-30T12:36:19.637Z,1007.94
2022-09-30T12:37:23.894Z,1007.94
2022-09-30T12:38:28.209Z,1007.92
2022-09-30T12:39:32.715Z,1007.88
2022-09-30T12:40:36.952Z,1007.87
2022-09-30T12:41:41.338Z,1007.84
2022-09-30T12:42:45.686Z,1007.87
2022-09-30T12:43:49.970Z,1007.82
2022-09-30T12:44:54.445Z,1007.81
2022-09-30T12:45:58.912Z,1007.78
2022-09-30T12:47:03.068Z,1007.82
2022-09-30T12:48:07.388Z,1007.82
2022-09-30T12:49:11.715Z,1007.85
2022-09-30T12:50:16.080Z,1007.83
2022-09-30T12:51:20.583Z,1007.80
2022-09-30T12:52:24.837Z,1007.83
2022-09-30T12:53:29.146Z,1007.84
2022-09-30T12:54:33.596Z,1007.83
2022-09-30T12:55:37.899Z,1007.82
2022-09-30T12:56:42.278Z,1007.80
2022-09-30T12:57:49.566Z,1007.83
2022-09-30T12:58:53.040Z,1007.77
2022-09-30T12:59:57.338Z,1007.80
2022-09-30T13:01:01.853Z,1007.82